Time;durP1;ratioP1;P1;durP2;ratioP2;P2;SDS_P1;SDS_P2;PMS_P1;PMS_P2;Temp;Humidity;BMP_temperature;BMP_pressure;BME280_temperature;BME280_humidity;BME280_pressure;Samples;Min_cycle;Max_cycle;Signal;HPM_P1;HPM_P2
2021/11/12 00:14:12;;;;;;;3.30;3.15;;;;;;;9.63;79.72;100586.09;4971884;28;20059;-79
2021/11/12 00:16:37;;;;;;;3.38;3.10;;;;;;;9.84;79.54;100601.63;4968501;28;20039;-77
2021/11/12 00:19:03;;;;;;;3.63;3.40;;;;;;;9.92;79.71;100603.88;4946617;29;20031;-75
2021/11/12 00:21:29;;;;;;;5.60;3.53;;;;;;;10.01;79.16;100587.03;4944785;29;20397;-80
2021/11/12 00:23:57;;;;;;;3.05;2.53;;;;;;;10.03;79.08;100585.72;4963723;28;20031;-79
2021/11/12 00:26:23;;;;;;;5.63;2.97;;;;;;;10.01;79.20;100576.94;4931285;29;20058;-76
2021/11/12 00:28:55;;;;;;;2.72;2.47;;;;;;;9.98;78.87;100579.38;4929819;28;20042;-76
2021/11/12 00:47:06;;;;;;;4.85;2.67;;;;;;;9.70;79.40;100537.56;4949988;29;20043;-79
2021/11/12 00:49:35;;;;;;;3.23;3.03;;;;;;;9.73;78.71;100547.97;4943413;29;20387;-78
2021/11/12 00:52:08;;;;;;;7.45;2.85;;;;;;;9.75;79.28;100551.25;4969887;29;20306;-78
2021/11/12 00:54:37;;;;;;;5.78;2.70;;;;;;;9.80;79.55;100540.41;4955258;29;20031;-79
2021/11/12 00:57:02;;;;;;;3.85;3.35;;;;;;;9.85;79.66;100539.63;4948258;29;20015;-78
2021/11/12 00:59:35;;;;;;;9.35;3.85;;;;;;;9.90;79.19;100532.31;4958412;28;20088;-78
2021/11/12 01:02:00;;;;;;;7.05;3.72;;;;;;;10.11;79.34;100540.69;4938998;29;20095;-78
2021/11/12 01:04:26;;;;;;;3.28;3.08;;;;;;;10.20;79.05;100541.03;4962076;28;20023;-77
2021/11/12 01:06:52;;;;;;;7.55;3.03;;;;;;;10.28;79.33;100541.38;4961716;28;20103;-78
2021/11/12 01:09:20;;;;;;;3.47;3.28;;;;;;;10.34;79.01;100530.50;4960634;29;20054;-78
2021/11/12 01:11:48;;;;;;;3.88;3.15;;;;;;;10.44;78.90;100530.56;4958600;29;20101;-81
2021/11/12 01:14:27;;;;;;;7.47;4.30;;;;;;;10.50;79.23;100524.06;4946422;29;20026;-81
2021/11/12 01:16:53;;;;;;;4.97;3.20;;;;;;;10.56;78.63;100525.75;4950212;29;20039;-82
2021/11/12 01:19:18;;;;;;;4.15;3.15;;;;;;;10.59;78.73;100516.19;4945292;29;20034;-81
2021/11/12 01:21:44;;;;;;;2.65;2.45;;;;;;;10.59;78.73;100500.59;4951495;29;20078;-83
2021/11/12 01:24:10;;;;;;;2.90;2.60;;;;;;;10.64;78.72;100492.44;4969618;28;20047;-79
2021/11/12 01:26:38;;;;;;;2.60;2.40;;;;;;;10.66;78.08;100475.78;4956100;28;20041;-80
2021/11/12 01:29:04;;;;;;;3.33;1.83;;;;;;;10.70;78.16;100462.38;4971432;28;20133;-79
2021/11/12 01:31:30;;;;;;;4.55;2.05;;;;;;;10.70;78.41;100452.25;4959986;28;20113;-82
2021/11/12 01:34:12;;;;;;;3.35;2.20;;;;;;;10.71;77.95;100450.34;4953614;29;20023;-79
2021/11/12 01:36:42;;;;;;;3.33;2.30;;;;;;;10.62;77.64;100445.38;4961772;28;20038;-81
2021/11/12 01:39:14;;;;;;;2.50;2.30;;;;;;;10.50;77.64;100439.31;4962284;29;20027;-80
2021/11/12 01:41:46;;;;;;;1.92;1.83;;;;;;;10.52;77.58;100441.78;4964964;28;20027;-80
2021/11/12 01:44:27;;;;;;;;;;;;;;;;;;;;;
2021/11/12 01:47:13;;;;;;;1.00;1.00;;;;;;;10.35;78.06;100431.00;4948227;29;20138;-73
2021/11/12 01:49:46;;;;;;;5.53;2.17;;;;;;;10.26;77.85;100419.72;4960314;28;20477;-74
2021/11/12 01:52:27;;;;;;;2.50;2.15;;;;;;;10.20;77.34;100405.19;4939940;29;20035;-75
2021/11/12 01:57:52;;;;;;;2.50;2.10;;;;;;;10.14;77.71;100389.88;4958271;28;20043;-75
2021/11/12 02:00:35;;;;;;;;;;;;;;;;;;;;;
2021/11/12 02:03:10;;;;;;;;;;;;;;;;;;;;;
2021/11/12 02:05:36;;;;;;;7.65;2.08;;;;;;;10.10;77.68;100372.34;4958178;29;20021;-71
2021/11/12 02:08:02;;;;;;;2.78;2.58;;;;;;;10.18;78.24;100376.50;4949779;28;20103;-73
2021/11/12 02:10:30;;;;;;;7.88;2.83;;;;;;;10.22;77.94;100370.25;4932951;29;20039;-73
2021/11/12 02:15:54;;;;;;;4.22;3.58;;;;;;;10.21;78.08;100374.06;4903310;29;20500;-74
2021/11/12 02:18:28;;;;;;;6.95;4.05;;;;;;;10.10;78.45;100378.66;4908957;29;20063;-74
2021/11/12 02:21:08;;;;;;;6.72;2.92;;;;;;;10.13;78.12;100380.00;4924742;29;20031;-74
2021/11/12 02:23:52;;;;;;;3.53;2.55;;;;;;;10.12;78.66;100383.84;4928597;29;20035;-74
2021/11/12 02:26:22;;;;;;;3.15;2.50;;;;;;;10.12;78.03;100387.41;4926706;29;20181;-74
2021/11/12 02:28:53;;;;;;;3.90;3.30;;;;;;;10.11;78.50;100368.53;4936819;29;20451;-73
2021/11/12 02:31:23;;;;;;;3.97;2.30;;;;;;;10.20;78.16;100377.88;4939209;29;20016;-71
2021/11/12 02:33:52;;;;;;;2.88;2.70;;;;;;;10.21;78.44;100357.66;4918037;29;20403;-70
2021/11/12 02:36:18;;;;;;;8.65;3.20;;;;;;;10.27;78.31;100362.06;4927973;29;20035;-72
2021/11/12 02:38:51;;;;;;;6.15;3.22;;;;;;;10.34;78.43;100366.50;4927608;29;20062;-70
2021/11/12 02:41:17;;;;;;;3.30;3.00;;;;;;;10.35;78.52;100362.69;4943084;29;20031;-74
2021/11/12 02:43:45;;;;;;;3.80;3.17;;;;;;;10.35;78.19;100362.69;4950047;29;20031;-72
2021/11/12 02:46:14;;;;;;;4.47;3.67;;;;;;;10.28;78.48;100354.72;4926319;29;20034;-72
2021/11/12 02:48:42;;;;;;;4.35;3.10;;;;;;;10.28;78.70;100355.53;4928152;29;20038;-72
2021/11/12 02:51:12;;;;;;;9.75;4.13;;;;;;;10.29;78.92;100354.44;4927036;29;20032;-74
2021/11/12 02:53:42;;;;;;;4.53;4.13;;;;;;;10.33;79.07;100354.72;4928018;29;20879;-75
2021/11/12 02:56:13;;;;;;;5.53;3.78;;;;;;;10.35;79.03;100338.09;4946382;29;20027;-74
2021/11/12 02:58:40;;;;;;;6.95;4.03;;;;;;;10.39;79.09;100341.94;4906117;29;20042;-74
2021/11/12 03:01:08;;;;;;;3.85;3.33;;;;;;;10.39;79.33;100342.75;4927412;29;20042;-75
2021/11/12 03:03:37;;;;;;;8.68;4.18;;;;;;;10.43;79.11;100335.66;4929274;29;20020;-74
2021/11/12 03:06:03;;;;;;;4.88;4.15;;;;;;;10.55;79.02;100329.97;4919631;29;20501;-74
2021/11/12 03:08:29;;;;;;;7.13;4.93;;;;;;;10.63;78.92;100332.19;4958203;28;20051;-74
2021/11/12 03:10:55;;;;;;;12.27;4.43;;;;;;;10.73;79.10;100323.19;4941404;29;20503;-75
2021/11/12 03:13:25;;;;;;;5.80;4.03;;;;;;;10.80;78.53;100325.66;4925257;29;20043;-73
2021/11/12 03:15:51;;;;;;;7.53;4.00;;;;;;;10.90;78.25;100325.69;4922145;29;20500;-73
2021/11/12 03:18:17;;;;;;;5.50;3.45;;;;;;;11.00;77.99;100308.47;4938882;29;20062;-75
2021/11/12 03:20:44;;;;;;;3.90;2.80;;;;;;;11.09;77.87;100300.53;4937569;28;20479;-71
2021/11/12 03:23:26;;;;;;;2.90;2.70;;;;;;;11.08;77.69;100282.47;4908269;29;20390;-74
2021/11/12 03:26:05;;;;;;;2.45;2.17;;;;;;;11.15;77.44;100283.84;4956465;29;20019;-73
2021/11/12 05:50:41;;;;;;;4.53;2.70;;;;;;;12.40;81.45;100079.59;4901809;29;20074;-82
2021/11/12 05:55:52;;;;;;;4.45;3.08;;;;;;;12.26;82.56;100068.44;4903802;29;20438;-80
2021/11/12 05:58:31;;;;;;;6.18;2.97;;;;;;;12.31;82.71;100068.41;4913546;29;20036;-77
2021/11/12 06:01:02;;;;;;;4.85;2.70;;;;;;;12.18;83.46;100047.13;4900805;29;20123;-81
2021/11/12 06:03:27;;;;;;;3.50;2.88;;;;;;;12.26;83.52;100067.63;4895338;29;20028;-79
2021/11/12 06:05:53;;;;;;;6.65;2.22;;;;;;;12.14;84.55;100068.81;4917340;29;20037;-78
2021/11/12 06:08:18;;;;;;;2.17;1.98;;;;;;;12.12;85.14;100064.72;4904231;29;20110;-79
2021/11/12 06:10:44;;;;;;;4.45;2.97;;;;;;;12.10;85.87;100066.94;4904823;29;20128;-79
2021/11/12 06:13:10;;;;;;;3.13;2.17;;;;;;;12.06;85.48;100061.19;4922641;29;20036;-79
2021/11/12 06:15:36;;;;;;;10.43;3.25;;;;;;;12.12;86.08;100081.16;4919495;29;20099;-79
2021/11/12 06:18:02;;;;;;;3.95;2.80;;;;;;;12.04;86.43;100064.22;4927259;29;20040;-78
2021/11/12 06:20:28;;;;;;;4.90;2.65;;;;;;;12.09;86.06;100049.66;4929546;29;20514;-80
2021/11/12 06:22:54;;;;;;;4.93;2.47;;;;;;;12.05;86.34;100054.88;4908666;29;20040;-78
2021/11/12 06:25:19;;;;;;;2.67;2.03;;;;;;;12.12;86.44;100046.34;4927907;29;20127;-78
2021/11/12 06:27:45;;;;;;;4.65;2.28;;;;;;;12.14;87.09;100046.06;4930804;29;20028;-77
2021/11/12 06:30:11;;;;;;;8.43;2.30;;;;;;;12.16;87.11;100049.34;4932651;29;20031;-78
2021/11/12 06:32:37;;;;;;;2.45;1.90;;;;;;;12.14;86.74;100066.06;4931207;29;20493;-78
2021/11/12 06:35:03;;;;;;;3.83;2.10;;;;;;;12.15;86.91;100050.44;4913379;29;20040;-78
2021/11/12 06:37:28;;;;;;;2.60;2.33;;;;;;;12.08;87.39;100033.53;4926090;29;20614;-78
2021/11/12 06:39:54;;;;;;;5.00;2.35;;;;;;;12.11;87.63;100025.53;4933321;29;20059;-79
2021/11/12 06:42:22;;;;;;;3.35;2.10;;;;;;;12.10;87.90;100040.31;4911991;29;20104;-78
2021/11/12 06:52:27;;;;;;;3.15;1.90;;;;;;;12.23;87.92;100047.09;4935356;29;20146;-78
2021/11/12 06:54:53;;;;;;;1.95;1.85;;;;;;;12.22;88.29;100048.19;4932061;29;20028;-79
2021/11/12 06:57:20;;;;;;;3.05;2.28;;;;;;;12.18;88.10;100047.13;4936531;29;20505;-78
2021/11/12 06:59:46;;;;;;;2.88;1.92;;;;;;;12.20;88.72;100033.97;4929474;29;20028;-77
2021/11/12 07:02:15;;;;;;;6.22;2.22;;;;;;;12.25;88.83;100030.34;4930705;29;20031;-77
2021/11/12 07:04:40;;;;;;;2.00;1.80;;;;;;;12.27;88.86;100039.13;4923375;29;20036;-76
2021/11/12 07:07:06;;;;;;;2.95;1.77;;;;;;;12.27;88.84;100028.16;4932043;29;20039;-80
2021/11/12 07:09:33;;;;;;;4.72;1.95;;;;;;;12.20;89.06;100033.97;4924152;29;20031;-75
2021/11/12 07:12:01;;;;;;;2.20;1.65;;;;;;;12.27;89.23;100028.97;4928775;29;20063;-75
2021/11/12 07:14:36;;;;;;;6.47;1.60;;;;;;;12.24;88.94;100029.53;4926451;29;20055;-76
2021/11/12 07:17:02;;;;;;;3.07;1.57;;;;;;;12.26;88.77;100010.06;4931082;29;20044;-77
2021/11/12 07:19:28;;;;;;;1.48;1.00;;;;;;;12.33;89.23;100010.56;4926874;29;20889;-74
2021/11/12 07:21:56;;;;;;;1.48;1.38;;;;;;;12.25;88.75;99986.50;4905575;29;20032;-72
2021/11/12 07:24:22;;;;;;;1.50;0.75;;;;;;;12.24;89.56;100015.84;4937106;29;20462;-72
2021/11/12 07:26:47;;;;;;;1.10;1.00;;;;;;;12.33;89.38;100005.06;4922393;29;20035;-73
2021/11/12 07:29:13;;;;;;;1.98;0.82;;;;;;;12.33;89.24;100005.06;4914949;29;20032;-73
2021/11/12 07:31:40;;;;;;;2.00;0.93;;;;;;;12.36;89.56;99997.06;4904652;29;20101;-74
2021/11/12 07:34:08;;;;;;;1.40;1.00;;;;;;;12.35;89.61;100003.69;4931098;29;20024;-74
2021/11/12 07:36:54;;;;;;;1.45;1.35;;;;;;;12.30;89.65;99995.50;4923184;29;20043;-74
2021/11/12 07:40:06;;;;;;;0.85;0.77;;;;;;;12.38;89.72;99997.63;4918865;29;20034;-75
2021/11/12 07:47:17;;;;;;;1.33;0.47;;;;;;;12.44;89.36;99978.34;4928114;29;20044;-75
2021/11/12 07:50:05;;;;;;;0.70;0.52;;;;;;;12.50;89.02;99988.16;4930567;28;20147;-74
2021/11/12 07:52:33;;;;;;;0.60;0.50;;;;;;;12.49;89.39;99981.06;4905947;29;20056;-73
2021/11/12 07:54:59;;;;;;;0.57;0.50;;;;;;;12.50;89.93;99988.16;4934307;29;20037;-74
2021/11/12 07:57:26;;;;;;;2.05;0.88;;;;;;;12.45;89.52;99996.47;4910975;29;20380;-73
2021/11/12 07:59:51;;;;;;;1.60;0.80;;;;;;;12.51;89.58;99976.94;4915858;29;20505;-74
2021/11/12 08:02:17;;;;;;;5.32;1.45;;;;;;;12.51;89.59;99979.69;4913346;29;20071;-74
2021/11/12 08:04:48;;;;;;;4.57;0.70;;;;;;;12.54;89.89;99959.06;4916144;29;20041;-73
2021/11/12 08:07:15;;;;;;;1.27;0.80;;;;;;;12.65;90.13;99968.81;4935542;29;20119;-73
2021/11/12 08:09:51;;;;;;;1.08;0.93;;;;;;;12.66;90.20;99992.41;4899772;29;20047;-69
2021/11/12 08:12:25;;;;;;;1.70;0.60;;;;;;;12.56;90.00;99970.56;4918993;29;20032;-72
2021/11/12 08:15:32;;;;;;;1.35;0.73;;;;;;;12.63;90.42;99971.03;4924517;29;20088;-72
2021/11/12 08:18:10;;;;;;;4.85;1.23;;;;;;;12.60;89.95;99993.56;4922997;29;20116;-73
2021/11/12 08:20:41;;;;;;;2.67;1.98;;;;;;;12.70;89.97;99971.53;4905500;29;20392;-76
2021/11/12 08:23:31;;;;;;;2.30;2.10;;;;;;;12.65;90.54;99979.78;4926496;29;20020;-74
2021/11/12 08:26:13;;;;;;;3.83;1.80;;;;;;;12.72;90.44;99960.25;4935307;29;20138;-74
2021/11/12 08:29:00;;;;;;;1.63;1.23;;;;;;;12.74;90.31;99964.31;4931913;29;20076;-78
2021/11/12 08:34:26;;;;;;;3.38;1.00;;;;;;;12.83;89.61;99966.44;4910430;29;20035;-76
2021/11/12 08:44:02;;;;;;;6.88;2.03;;;;;;;13.02;88.84;99983.75;4869244;29;20235;-76
2021/11/12 08:46:41;;;;;;;10.65;1.65;;;;;;;13.02;88.17;99972.78;4840100;29;20056;-74
2021/11/12 08:49:17;;;;;;;4.28;1.60;;;;;;;13.09;88.47;99975.97;4834377;29;20170;-77
2021/11/12 08:52:46;;;;;;;;;;;;;;;;;;;;;
2021/11/12 08:56:41;;;;;;;;;;;;;;;;;;;;;
2021/11/12 08:59:56;;;;;;;6.00;1.80;;;;;;;13.25;87.22;99979.34;4808982;29;20110;-75
2021/11/12 09:16:19;;;;;;;10.82;1.35;;;;;;;13.56;85.76;99953.41;4806159;29;20526;-77
2021/11/12 09:22:42;;;;;;;7.45;1.67;;;;;;;13.91;85.47;99953.97;4807694;29;20034;-79
2021/11/12 09:28:18;;;;;;;14.65;1.77;;;;;;;15.02;83.97;99948.66;4798669;29;20039;-79
2021/11/12 09:30:53;;;;;;;8.98;1.60;;;;;;;15.93;81.84;99933.13;4876120;29;20064;-76
2021/11/12 09:33:48;;;;;;;14.13;1.92;;;;;;;16.65;78.14;99933.19;4887966;29;20134;-77
2021/11/12 09:36:25;;;;;;;16.60;3.45;;;;;;;17.48;75.89;99943.47;4939484;29;20083;-78
2021/11/12 09:39:16;;;;;;;21.98;2.78;;;;;;;18.19;74.03;99941.47;4922010;29;20023;-77
2021/11/12 09:42:01;;;;;;;;;;;;;;;;;;;;;
2021/11/12 09:44:55;;;;;;;8.07;2.25;;;;;;;18.95;69.29;99937.97;4926855;29;20075;-77
2021/11/12 09:47:51;;;;;;;10.35;2.28;;;;;;;18.90;67.06;99949.22;4925141;29;20023;-78
2021/11/12 09:51:00;;;;;;;;;;;;;;;;;;;;;
2021/11/12 09:53:39;;;;;;;15.23;2.88;;;;;;;17.50;66.47;99940.38;4926169;29;20099;-76
2021/11/12 09:56:34;;;;;;;;;;;;;;;;;;;;;
2021/11/12 09:59:01;;;;;;;16.20;3.53;;;;;;;16.17;68.40;99938.28;4919167;29;20107;-75
2021/11/12 10:01:50;;;;;;;9.93;3.35;;;;;;;15.79;69.16;99932.38;4919565;29;20020;-75
2021/11/12 10:04:18;;;;;;;16.98;3.08;;;;;;;15.43;70.49;99931.22;4917918;29;20126;-75
2021/11/12 10:07:33;;;;;;;15.52;3.22;;;;;;;15.29;70.92;99930.47;4924687;29;20051;-74
2021/11/12 10:10:08;;;;;;;20.65;3.45;;;;;;;14.92;70.70;99910.31;4915655;29;20065;-72
2021/11/12 10:13:00;;;;;;;18.42;2.92;;;;;;;14.57;68.47;99920.91;4918851;29;20036;-75
2021/11/12 10:15:36;;;;;;;14.55;2.85;;;;;;;14.05;70.10;99910.06;4920990;29;20032;-76
2021/11/12 10:18:21;;;;;;;9.90;1.65;;;;;;;13.90;72.02;99916.59;4927977;29;20052;-75
2021/11/12 10:21:33;;;;;;;6.32;1.85;;;;;;;13.81;72.82;99916.47;4932737;29;20036;-74
2021/11/12 10:24:06;;;;;;;10.65;2.55;;;;;;;13.67;74.33;99894.47;4899653;29;20040;-76
2021/11/12 10:26:55;;;;;;;14.60;2.65;;;;;;;13.85;74.36;99897.47;4936135;29;20060;-72
2021/11/12 10:29:43;;;;;;;13.15;2.00;;;;;;;14.00;73.87;99919.19;4917168;29;21258;-73
2021/11/12 10:32:11;;;;;;;14.85;2.15;;;;;;;14.13;74.35;99895.59;4913714;29;20046;-75
2021/11/12 10:35:08;;;;;;;8.52;1.63;;;;;;;14.37;74.40;99909.19;4937894;29;20036;-75
2021/11/12 10:40:52;;;;;;;;;;;;;;;;;;;;;
2021/11/12 10:43:50;;;;;;;12.18;2.08;;;;;;;16.48;70.00;99917.34;4917447;29;20474;-72
2021/11/12 10:47:03;;;;;;;12.48;2.67;;;;;;;17.95;65.92;99910.44;4930257;29;20104;-72
2021/11/12 10:49:29;;;;;;;10.55;2.13;;;;;;;19.15;60.32;99916.16;4921583;29;20038;-72
2021/11/12 10:52:01;;;;;;;10.90;2.22;;;;;;;19.84;56.39;99916.78;4929193;29;20479;-71
2021/11/12 10:54:55;;;;;;;6.20;2.25;;;;;;;20.66;57.03;99921.63;4921642;29;20035;-72
2021/11/12 11:15:32;;;;;;;;;;;;;;;;;;;;;
2021/11/12 11:19:06;;;;;;;12.83;3.83;;;;;;;22.59;44.04;99885.84;4760482;29;20056;-75
2021/11/12 11:35:24;;;;;;;13.23;3.30;;;;;;;25.01;39.19;99862.63;4888176;29;20417;-72
2021/11/12 11:38:03;;;;;;;;;;;;;;;;;;;;;
2021/11/12 11:40:32;;;;;;;21.45;4.13;;;;;;;25.30;35.98;99879.78;4944324;29;20023;-73
2021/11/12 11:42:58;;;;;;;23.58;5.18;;;;;;;24.41;37.41;99880.84;4923280;29;20031;-75
2021/11/12 11:48:22;;;;;;;19.52;5.07;;;;;;;22.98;40.60;99885.13;4936026;29;20057;-75
2021/11/12 11:50:51;;;;;;;12.23;3.38;;;;;;;22.25;42.73;99876.19;4919284;29;20066;-75
2021/11/12 11:53:38;;;;;;;27.17;4.53;;;;;;;21.08;44.19;99874.13;4922658;29;20064;-75
2021/11/12 11:56:26;;;;;;;20.95;4.55;;;;;;;20.10;47.12;99880.44;4931885;29;20023;-78
2021/11/12 11:59:08;;;;;;;19.95;4.30;;;;;;;19.25;49.08;99865.88;4932190;29;20025;-76
2021/11/12 12:01:37;;;;;;;23.42;4.22;;;;;;;18.48;51.38;99877.88;4907589;29;20055;-72
2021/11/12 12:04:05;;;;;;;17.25;4.03;;;;;;;17.94;52.85;99872.84;4919626;29;20020;-73
2021/11/12 12:06:31;;;;;;;19.20;4.60;;;;;;;17.48;54.58;99863.31;4928852;29;20059;-70
2021/11/12 12:09:06;;;;;;;29.02;6.35;;;;;;;17.13;55.37;99863.31;4933849;29;20028;-73
2021/11/12 12:11:50;;;;;;;20.98;6.18;;;;;;;16.85;56.52;99868.25;4915564;29;20032;-72
2021/11/12 12:14:33;;;;;;;23.67;4.65;;;;;;;16.64;57.21;99868.06;4931926;29;20555;-72
2021/11/12 12:16:59;;;;;;;24.27;4.95;;;;;;;16.33;58.48;99863.41;4926215;29;20042;-72
2021/11/12 12:20:07;;;;;;;30.17;4.68;;;;;;;16.11;59.43;99867.84;4927470;28;20044;-73
2021/11/12 12:33:31;;;;;;;20.15;4.60;;;;;;;15.54;62.14;99811.38;4926269;29;20043;-71
2021/11/12 13:22:09;;;;;;;24.50;4.82;;;;;;;15.61;63.84;99796.34;4932530;28;20046;-71
2021/11/12 13:25:17;;;;;;;;;;;;;;;;;;;;;
2021/11/12 13:27:52;;;;;;;;;;;;;;;;;;;;;
2021/11/12 13:30:56;;;;;;;19.23;4.75;;;;;;;15.59;63.26;99795.84;4938417;29;20433;-73
2021/11/12 13:33:49;;;;;;;19.00;2.60;;;;;;;15.40;64.94;99798.81;4907411;29;20040;-73
2021/11/12 13:36:50;;;;;;;14.98;3.28;;;;;;;14.88;68.04;99799.19;4917084;29;20023;-72
2021/11/12 13:43:37;;;;;;;;;;;;;;;;;;;;;
2021/11/12 13:46:00;;;;;;;19.08;3.33;;;;;;;13.82;73.07;99764.22;4920317;29;20171;-78
2021/11/12 13:48:28;;;;;;;12.10;2.67;;;;;;;13.73;73.98;99779.78;4916614;29;20028;-73
2021/11/12 13:51:01;;;;;;;19.08;2.75;;;;;;;13.58;74.50;99753.38;4925804;29;20051;-74
2021/11/12 13:53:28;;;;;;;15.63;3.33;;;;;;;13.56;75.02;99764.69;4916723;29;20394;-75
2021/11/12 13:55:57;;;;;;;9.45;2.33;;;;;;;14.26;76.37;99753.75;4928009;29;20043;-74
2021/11/12 13:58:26;;;;;;;10.63;2.38;;;;;;;16.03;73.11;99763.81;4911612;29;20438;-75
2021/11/12 14:00:59;;;;;;;9.90;2.40;;;;;;;17.73;67.92;99798.06;4925253;29;20024;-73
2021/11/12 14:03:36;;;;;;;6.95;1.30;;;;;;;19.05;60.57;99780.78;4926589;29;20443;-73
2021/11/12 14:06:09;;;;;;;13.43;3.17;;;;;;;19.92;56.71;99782.72;4930259;29;20034;-75
2021/11/12 14:08:52;;;;;;;;;;;;;;;;;;;;;
2021/11/12 14:11:25;;;;;;;1.92;1.20;;;;;;;21.92;51.50;99796.63;4943632;29;20087;-76
2021/11/12 14:14:05;;;;;;;3.63;1.50;;;;;;;22.51;48.72;99780.16;4948355;29;20023;-75
2021/11/12 14:16:56;;;;;;;3.85;1.80;;;;;;;22.57;47.57;99787.06;4929345;29;20250;-76
2021/11/12 14:22:27;;;;;;;7.53;3.05;;;;;;;21.89;45.67;99773.06;4918604;29;20097;-76
2021/11/12 14:37:03;;;;;;;13.15;1.65;;;;;;;16.95;57.53;99773.28;4921711;29;20032;-76
2021/11/12 14:43:22;;;;;;;6.35;2.15;;;;;;;16.31;59.46;99760.81;4928604;29;20500;-76
2021/11/12 14:46:10;;;;;;;7.88;2.00;;;;;;;16.11;60.43;99746.50;4906053;29;20042;-75
2021/11/12 14:49:05;;;;;;;13.20;2.55;;;;;;;15.77;61.51;99736.09;4924858;29;20384;-76
2021/11/12 14:51:56;;;;;;;7.97;2.78;;;;;;;15.61;62.10;99749.50;4926662;29;20031;-75
2021/11/12 14:55:03;;;;;;;;;;;;;;;;;;;;;
2021/11/12 14:57:32;;;;;;;9.30;2.08;;;;;;;15.09;63.42;99728.78;4912558;29;20668;-72
2021/11/12 15:00:33;;;;;;;;;;;;;;;;;;;;;
2021/11/12 15:03:10;;;;;;;10.80;2.95;;;;;;;14.86;64.50;99747.22;4923556;29;20118;-74
2021/11/12 15:27:44;;;;;;;13.23;1.80;;;;;;;14.41;67.34;99761.69;4764352;29;20116;-73
2021/11/12 15:30:21;;;;;;;3.80;1.67;;;;;;;14.26;67.16;99751.00;4769126;30;20051;-75
2021/11/12 15:32:55;;;;;;;11.30;1.98;;;;;;;14.25;66.64;99749.34;4781696;29;20042;-74
2021/11/12 15:35:26;;;;;;;6.88;2.60;;;;;;;14.22;66.71;99738.97;4792798;29;20027;-75
2021/11/12 15:38:06;;;;;;;11.55;3.00;;;;;;;14.39;66.87;99772.16;4808601;29;20034;-73
2021/11/12 15:43:39;;;;;;;;;;;;;;;;;;;;;
2021/11/12 15:46:12;;;;;;;8.48;3.05;;;;;;;13.98;67.36;99762.00;4914051;29;20092;-75
2021/11/12 15:48:39;;;;;;;3.88;1.30;;;;;;;13.84;68.83;99761.16;4893831;29;20055;-72
2021/11/12 15:51:42;;;;;;;;;;;;;;;;;;;;;
2021/11/12 16:00:51;;;;;;;5.75;1.20;;;;;;;12.89;75.74;99764.94;4894400;29;20060;-75
2021/11/12 16:32:08;;;;;;;;;;;;;;;;;;;;;
2021/11/12 16:35:37;;;;;;;7.07;2.10;;;;;;;12.44;74.73;99729.66;4814194;29;20061;-75
2021/11/12 17:04:47;;;;;;;;;;;;;;;;;;;;;
2021/11/12 17:07:25;;;;;;;7.53;1.40;;;;;;;12.70;74.40;99763.03;4917538;29;20087;-73
2021/11/12 17:13:10;;;;;;;12.60;1.20;;;;;;;12.63;75.81;99768.06;4904972;29;20037;-70
2021/11/12 17:47:31;;;;;;;8.75;1.60;;;;;;;12.70;74.91;99768.53;4924987;29;20047;-72
2021/11/12 18:03:23;;;;;;;7.28;1.50;;;;;;;12.59;76.77;99802.69;4925829;29;20071;-72
2021/11/12 18:06:36;;;;;;;;;;;;;;;;;;;;;
2021/11/12 18:15:20;;;;;;;6.63;1.05;;;;;;;12.28;78.80;99811.28;4878393;29;20385;-73
2021/11/12 18:20:57;;;;;;;4.50;1.13;;;;;;;12.41;79.46;99828.94;4942088;29;20437;-74
2021/11/12 18:23:49;;;;;;;7.15;0.98;;;;;;;12.36;79.40;99816.13;4914383;29;20222;-72
2021/11/12 21:55:33;;;;;;;5.45;0.85;;;;;;;11.76;80.05;99849.34;4822534;29;20208;-74
2021/11/12 22:01:23;;;;;;;5.65;1.20;;;;;;;11.80;80.09;99844.13;4827848;29;20065;-76
2021/11/12 22:04:27;;;;;;;;;;;;;;;;;;;;;
2021/11/12 22:06:57;;;;;;;9.35;1.23;;;;;;;11.65;79.62;99843.16;4867472;29;20110;-72
2021/11/12 22:14:01;;;;;;;10.70;0.98;;;;;;;11.78;78.94;99877.25;4850337;29;20095;-74
2021/11/12 22:16:32;;;;;;;6.90;1.20;;;;;;;11.63;79.21;99856.28;4794300;29;20038;-75
2021/11/12 22:22:50;;;;;;;8.57;0.90;;;;;;;11.49;79.34;99827.94;4804491;29;20493;-76
2021/11/12 22:32:54;;;;;;;;;;;;;;;;;;;;;
2021/11/12 22:35:43;;;;;;;4.95;1.13;;;;;;;11.57;79.23;99865.66;4832519;29;20114;-75
2021/11/12 22:38:24;;;;;;;6.70;0.95;;;;;;;11.52;79.71;99860.22;4832822;29;20034;-75
2021/11/12 22:41:10;;;;;;;7.63;0.93;;;;;;;11.53;79.50;99867.31;4921944;29;20079;-76
2021/11/12 22:44:02;;;;;;;5.78;0.93;;;;;;;11.46;79.84;99850.41;4912833;29;20063;-76
2021/11/12 22:46:57;;;;;;;7.55;1.15;;;;;;;11.50;79.74;99856.94;4904350;29;20036;-74
2021/11/12 22:49:46;;;;;;;2.00;0.98;;;;;;;11.60;80.39;99883.44;4924790;29;20027;-76
2021/11/12 22:52:11;;;;;;;4.53;1.38;;;;;;;11.45;80.32;99857.00;4902806;29;20120;-77
2021/11/12 23:08:38;;;;;;;;;;;;;;;;;;;;;
2021/11/12 23:11:12;;;;;;;6.07;0.95;;;;;;;11.39;80.46;99905.50;4847479;29;20145;-73
2021/11/12 23:13:47;;;;;;;2.38;0.95;;;;;;;11.59;80.71;99917.41;4922965;29;20071;-72
2021/11/12 23:16:15;;;;;;;6.45;0.90;;;;;;;11.50;80.51;99911.72;4926539;29;20106;-74
2021/11/12 23:18:44;;;;;;;3.38;0.93;;;;;;;11.67;79.92;99922.28;4923163;29;20032;-71
2021/11/12 23:21:19;;;;;;;7.00;0.85;;;;;;;11.60;80.36;99922.59;4924316;29;20035;-73
2021/11/12 23:23:49;;;;;;;2.63;0.80;;;;;;;11.73;79.87;99931.28;4898248;29;20111;-71
2021/11/12 23:26:19;;;;;;;2.53;0.75;;;;;;;11.74;79.79;99938.38;4906906;29;20115;-75
2021/11/12 23:28:48;;;;;;;7.28;0.80;;;;;;;11.66;79.68;99937.88;4906884;29;20020;-73
2021/11/12 23:31:14;;;;;;;3.10;0.80;;;;;;;11.65;79.34;99941.72;4924545;29;20051;-72
2021/11/12 23:33:40;;;;;;;2.15;1.13;;;;;;;11.79;79.16;99963.00;4922237;29;20032;-71
2021/11/12 23:36:09;;;;;;;2.97;0.73;;;;;;;11.78;78.80;99970.38;4910754;29;20032;-72
2021/11/12 23:38:35;;;;;;;9.18;1.13;;;;;;;11.78;78.24;99975.06;4924614;29;20028;-72
2021/11/12 23:41:01;;;;;;;5.82;0.82;;;;;;;11.73;77.94;99975.09;4926081;29;20051;-73
2021/11/12 23:43:29;;;;;;;1.23;0.40;;;;;;;11.70;78.59;99969.06;4906819;29;20044;-72
2021/11/12 23:45:55;;;;;;;1.70;0.60;;;;;;;11.60;78.14;99960.94;4922449;29;20028;-71
2021/11/12 23:48:20;;;;;;;3.25;0.98;;;;;;;11.59;78.47;99959.28;4917709;29;20032;-72
2021/11/12 23:50:48;;;;;;;2.03;1.08;;;;;;;11.56;78.17;99959.84;4897634;29;20036;-71
2021/11/12 23:53:14;;;;;;;3.58;1.45;;;;;;;11.52;78.81;99958.78;4897316;29;20110;-71
2021/11/12 23:55:39;;;;;;;3.58;1.23;;;;;;;11.54;78.39;99948.38;4914561;29;20497;-73
2021/11/12 23:58:06;;;;;;;2.22;0.90;;;;;;;11.49;78.22;99953.88;4915217;29;20032;-73
